createdAt,value
2022-10-28T00:02:55.996Z,2.58
2022-10-28T00:06:08.741Z,2.47
2022-10-28T00:09:13.260Z,2.38
2022-10-28T00:12:17.915Z,2.15
2022-10-28T00:15:22.375Z,2.42
2022-10-28T00:18:29.795Z,2.15
2022-10-28T00:21:38.205Z,2.70
2022-10-28T00:24:42.629Z,2.60
2022-10-28T00:27:47.056Z,2.70
2022-10-28T00:30:51.480Z,2.35
2022-10-28T00:33:57.858Z,2.70
2022-10-28T00:37:02.443Z,2.55
2022-10-28T00:40:07.635Z,2.65
2022-10-28T00:43:12.358Z,2.75
2022-10-28T00:46:31.080Z,2.45
2022-10-28T00:49:35.819Z,2.33
2022-10-28T00:52:41.630Z,2.35
2022-10-28T00:55:49.097Z,2.40
2022-10-28T00:58:58.681Z,2.35
2022-10-28T01:02:05.287Z,2.28
2022-10-28T01:05:13.200Z,2.42
2022-10-28T01:08:18.562Z,2.30
2022-10-28T01:11:32.025Z,2.50
2022-10-28T01:18:28.390Z,1.85
2022-10-28T01:22:19.650Z,2.08
2022-10-28T01:26:20.994Z,2.15
2022-10-28T01:29:43.720Z,2.30
2022-10-28T01:33:14.380Z,1.65
2022-10-28T01:36:38.254Z,2.35
2022-10-28T01:39:47.837Z,2.33
2022-10-28T01:43:13.032Z,2.30
2022-10-28T01:46:34.860Z,2.50
2022-10-28T01:50:02.419Z,2.10
2022-10-28T01:53:13.853Z,2.38
2022-10-28T01:56:29.196Z,2.60
2022-10-28T01:59:35.292Z,1.90
2022-10-28T02:02:41.052Z,2.30
2022-10-28T02:05:55.307Z,2.33
2022-10-28T02:09:30.403Z,2.40
2022-10-28T02:12:37.938Z,2.30
2022-10-28T02:15:54.291Z,2.20
2022-10-28T02:19:15.895Z,2.10
2022-10-28T02:22:29.715Z,1.92
2022-10-28T02:25:51.385Z,2.10
2022-10-28T02:29:12.872Z,2.00
2022-10-28T02:32:22.946Z,1.95
2022-10-28T02:35:39.653Z,2.08
2022-10-28T02:38:49.573Z,2.15
2022-10-28T02:42:18.591Z,2.13
2022-10-28T02:45:29.541Z,2.40
2022-10-28T02:48:40.000Z,2.30
2022-10-28T02:51:52.279Z,2.20
2022-10-28T02:55:04.667Z,2.20
2022-10-28T02:58:10.700Z,2.60
2022-10-28T03:01:15.435Z,2.30
2022-10-28T03:04:20.158Z,2.60
2022-10-28T03:07:24.562Z,2.55
2022-10-28T03:10:29.299Z,2.50
2022-10-28T03:13:33.787Z,2.60
2022-10-28T03:16:38.016Z,2.60
2022-10-28T03:19:42.524Z,2.33
2022-10-28T03:22:46.951Z,2.88
2022-10-28T03:25:51.299Z,2.17
2022-10-28T03:28:56.020Z,2.60
2022-10-28T03:32:00.371Z,2.17
2022-10-28T03:35:05.738Z,2.33
2022-10-28T03:38:10.059Z,2.30
2022-10-28T03:41:14.372Z,2.47
2022-10-28T03:44:18.936Z,2.40
2022-10-28T03:47:23.433Z,2.30
2022-10-28T03:50:28.029Z,2.03
2022-10-28T03:53:32.679Z,2.28
2022-10-28T03:56:40.446Z,2.15
2022-10-28T03:59:45.510Z,2.10
2022-10-28T04:02:52.278Z,2.70
2022-10-28T04:05:57.019Z,2.40
2022-10-28T04:09:01.389Z,2.55
2022-10-28T04:12:06.828Z,2.28
2022-10-28T04:15:11.302Z,2.00
2022-10-28T04:18:15.739Z,2.50
2022-10-28T04:21:20.297Z,2.38
2022-10-28T04:24:24.999Z,2.50
2022-10-28T04:27:29.371Z,2.08
2022-10-28T04:30:33.657Z,1.70
2022-10-28T04:33:38.347Z,1.85
2022-10-28T04:36:42.700Z,2.13
2022-10-28T04:39:47.039Z,1.77
2022-10-28T04:42:51.812Z,1.83
2022-10-28T04:45:56.473Z,2.00
2022-10-28T04:49:05.144Z,1.98
2022-10-28T04:52:13.399Z,2.30
2022-10-28T04:55:21.381Z,1.88
2022-10-28T04:58:26.763Z,2.00
2022-10-28T05:01:31.675Z,2.15
2022-10-28T05:04:36.552Z,2.03
2022-10-28T05:07:41.089Z,2.20
2022-10-28T05:10:48.822Z,2.17
2022-10-28T05:13:54.101Z,2.10
2022-10-28T05:16:58.516Z,2.40
2022-10-28T05:20:02.997Z,2.28
2022-10-28T05:23:07.669Z,2.47
2022-10-28T05:26:12.059Z,2.10
2022-10-28T05:29:18.367Z,2.05
2022-10-28T05:32:23.043Z,2.20
2022-10-28T05:35:27.404Z,1.85
2022-10-28T05:38:31.786Z,2.47
2022-10-28T05:41:38.770Z,2.08
2022-10-28T05:44:43.519Z,2.15
2022-10-28T05:47:49.116Z,2.17
2022-10-28T05:50:53.938Z,2.17
2022-10-28T05:53:58.496Z,1.80
2022-10-28T05:57:02.950Z,2.00
2022-10-28T06:00:08.429Z,2.05
2022-10-28T06:03:18.956Z,1.85
2022-10-28T06:06:24.229Z,2.15
2022-10-28T06:09:29.395Z,2.08
2022-10-28T06:15:42.909Z,1.90
2022-10-28T06:18:47.363Z,2.03
2022-10-28T06:21:51.653Z,1.75
2022-10-28T06:24:56.150Z,2.10
2022-10-28T06:28:05.825Z,1.73
2022-10-28T06:31:13.968Z,2.30
2022-10-28T06:34:18.390Z,2.22
2022-10-28T06:37:22.749Z,2.30
2022-10-28T06:40:27.691Z,2.38
2022-10-28T06:43:32.341Z,2.05
2022-10-28T06:46:38.464Z,2.08
2022-10-28T06:49:43.176Z,2.15
2022-10-28T06:52:47.917Z,2.60
2022-10-28T06:55:56.568Z,2.15
2022-10-28T06:59:00.762Z,1.92
2022-10-28T07:02:05.603Z,2.67
2022-10-28T07:05:10.618Z,1.90
2022-10-28T07:08:15.564Z,2.10
2022-10-28T07:11:20.013Z,2.30
2022-10-28T07:14:24.865Z,2.25
2022-10-28T07:17:29.185Z,2.20
2022-10-28T07:20:33.751Z,2.22
2022-10-28T07:23:38.480Z,2.72
2022-10-28T07:26:43.108Z,2.30
2022-10-28T07:29:47.900Z,2.17
2022-10-28T07:32:52.675Z,1.85
2022-10-28T07:35:57.296Z,2.22
2022-10-28T07:39:01.569Z,2.20
2022-10-28T07:42:06.205Z,1.85
2022-10-28T07:45:10.574Z,2.17
2022-10-28T07:48:14.993Z,2.10
2022-10-28T07:51:19.414Z,2.50
2022-10-28T07:54:23.811Z,1.80
2022-10-28T07:57:28.799Z,2.05
2022-10-28T08:00:33.517Z,1.98
2022-10-28T08:03:38.835Z,1.83
2022-10-28T08:06:44.289Z,1.98
2022-10-28T08:09:48.902Z,2.20
2022-10-28T08:12:58.124Z,1.70
2022-10-28T08:16:02.704Z,2.45
2022-10-28T08:19:07.957Z,1.65
2022-10-28T08:22:12.452Z,2.17
2022-10-28T08:25:17.307Z,2.00
2022-10-28T08:28:22.065Z,1.90
2022-10-28T08:31:26.345Z,1.77
2022-10-28T08:34:31.321Z,2.00
2022-10-28T08:37:35.957Z,1.77
2022-10-28T08:41:23.880Z,1.83
2022-10-28T08:45:15.989Z,1.65
2022-10-28T08:48:31.469Z,1.67
2022-10-28T08:51:56.997Z,1.85
2022-10-28T08:55:06.092Z,1.73
2022-10-28T08:58:24.197Z,1.88
2022-10-28T09:01:48.354Z,1.83
2022-10-28T09:05:15.247Z,1.90
2022-10-28T09:08:28.230Z,1.88
2022-10-28T09:12:09.614Z,2.33
2022-10-28T09:15:52.749Z,2.00
2022-10-28T09:19:02.925Z,1.88
2022-10-28T09:23:18.822Z,1.67
2022-10-28T09:26:58.812Z,2.00
2022-10-28T09:31:02.397Z,1.90
2022-10-28T09:34:46.550Z,1.70
2022-10-28T09:38:06.181Z,2.03
2022-10-28T09:41:27.499Z,1.73
2022-10-28T09:45:14.122Z,1.92
2022-10-28T09:48:31.382Z,1.85
2022-10-28T09:51:53.225Z,2.03
2022-10-28T09:54:59.913Z,1.70
2022-10-28T09:58:05.334Z,1.88
2022-10-28T10:01:10.373Z,2.15
2022-10-28T10:04:22.702Z,1.95
2022-10-28T10:07:48.315Z,2.03
2022-10-28T10:11:28.671Z,1.98
2022-10-28T10:14:44.479Z,2.15
2022-10-28T10:17:49.758Z,2.30
2022-10-28T10:21:00.291Z,2.33
2022-10-28T10:24:21.508Z,2.40
2022-10-28T10:27:28.784Z,2.38
2022-10-28T10:30:49.636Z,2.00
2022-10-28T10:33:57.302Z,2.03
2022-10-28T10:40:18.069Z,2.88
2022-10-28T10:43:36.895Z,2.88
2022-10-28T10:46:41.801Z,2.20
2022-10-28T10:49:46.522Z,2.33
2022-10-28T10:53:00.157Z,2.42
2022-10-28T10:56:09.268Z,2.13
2022-10-28T10:59:30.024Z,2.10
2022-10-28T11:02:39.782Z,2.50
2022-10-28T11:06:22.528Z,2.40
2022-10-28T11:09:40.122Z,2.35
2022-10-28T11:12:54.668Z,2.05
2022-10-28T11:16:22.853Z,2.10
2022-10-28T11:19:37.593Z,2.17
2022-10-28T11:23:05.097Z,1.70
2022-10-28T11:26:15.058Z,2.10
2022-10-28T11:29:19.400Z,1.98
2022-10-28T11:33:08.142Z,1.90
2022-10-28T11:36:31.699Z,1.60
2022-10-28T11:40:14.015Z,1.77
2022-10-28T11:43:55.082Z,1.90
2022-10-28T11:47:44.760Z,1.95
2022-10-28T11:51:25.285Z,2.00
2022-10-28T11:54:55.693Z,2.67
2022-10-28T11:58:22.013Z,1.88
2022-10-28T12:01:41.488Z,2.10
2022-10-28T12:05:08.844Z,1.58
2022-10-28T12:08:33.205Z,2.38
2022-10-28T12:12:14.143Z,1.70
2022-10-28T12:15:50.497Z,2.03
2022-10-28T12:19:08.909Z,1.75
2022-10-28T12:22:33.862Z,1.75
2022-10-28T12:25:42.759Z,2.33
2022-10-28T12:28:55.330Z,1.80
2022-10-28T12:32:08.788Z,2.22
2022-10-28T12:35:26.189Z,2.17
2022-10-28T12:39:12.919Z,2.22
2022-10-28T12:42:31.310Z,1.90
2022-10-28T12:45:38.605Z,2.45
2022-10-28T12:48:51.291Z,1.85
2022-10-28T12:52:02.568Z,1.95
2022-10-28T12:58:33.778Z,2.33
2022-10-28T13:01:39.530Z,1.80
2022-10-28T13:04:44.349Z,2.28
2022-10-28T13:08:08.068Z,2.65
2022-10-28T13:11:40.500Z,2.33
2022-10-28T13:15:22.902Z,2.40
2022-10-28T13:18:57.792Z,2.22
2022-10-28T13:25:50.624Z,2.25
2022-10-28T13:29:03.069Z,2.37
2022-10-28T13:32:42.527Z,2.42
2022-10-28T13:35:47.356Z,2.30
2022-10-28T13:38:59.931Z,2.20
2022-10-28T13:42:13.759Z,3.00
2022-10-28T13:45:48.484Z,1.67
2022-10-28T13:48:52.971Z,2.00
2022-10-28T13:52:06.781Z,2.00
2022-10-28T13:55:14.229Z,2.05
2022-10-28T13:58:25.035Z,1.80
2022-10-28T14:02:32.409Z,2.30
2022-10-28T14:05:48.705Z,2.10
2022-10-28T14:08:53.647Z,1.95
2022-10-28T14:12:21.519Z,2.08
2022-10-28T14:15:37.114Z,2.10
2022-10-28T14:18:44.794Z,1.80
2022-10-28T14:22:07.906Z,2.03
2022-10-28T14:25:40.519Z,2.05
2022-10-28T14:28:45.448Z,2.15
2022-10-28T14:31:49.695Z,2.45
2022-10-28T14:34:56.018Z,2.10
2022-10-28T14:38:44.332Z,2.75
2022-10-28T14:42:30.931Z,2.03
2022-10-28T14:46:11.158Z,2.13
2022-10-28T14:49:31.440Z,1.85
2022-10-28T14:52:37.527Z,1.70
2022-10-28T14:55:47.590Z,2.17
2022-10-28T14:58:56.657Z,2.10
2022-10-28T15:02:11.973Z,2.47
2022-10-28T15:05:20.667Z,2.45
2022-10-28T15:08:25.487Z,2.72
2022-10-28T15:11:31.473Z,2.13
2022-10-28T15:14:52.141Z,2.15
2022-10-28T15:17:59.237Z,1.98
2022-10-28T15:21:13.891Z,1.85
2022-10-28T15:24:18.284Z,1.95
2022-10-28T15:27:24.747Z,2.00
2022-10-28T15:30:29.745Z,1.65
2022-10-28T15:33:52.567Z,1.95
2022-10-28T15:40:22.583Z,2.60
2022-10-28T15:43:29.488Z,2.25
2022-10-28T15:46:34.677Z,2.03
2022-10-28T15:49:41.178Z,1.75
2022-10-28T15:52:48.250Z,2.33
2022-10-28T15:56:14.902Z,1.77
2022-10-28T15:59:25.008Z,2.20
2022-10-28T16:02:41.813Z,2.03
2022-10-28T16:05:49.214Z,2.47
2022-10-28T16:09:17.329Z,2.38
2022-10-28T16:12:26.479Z,2.20
2022-10-28T16:15:31.168Z,2.13
2022-10-28T16:19:08.610Z,1.98
2022-10-28T16:22:14.311Z,2.03
2022-10-28T16:25:21.740Z,1.95
2022-10-28T16:28:28.123Z,1.63
2022-10-28T16:31:32.586Z,2.42
2022-10-28T16:34:37.008Z,2.38
2022-10-28T16:37:45.270Z,1.92
2022-10-28T16:40:52.543Z,2.28
2022-10-28T16:43:57.448Z,2.50
2022-10-28T16:47:02.554Z,2.10
2022-10-28T16:50:07.528Z,2.10
2022-10-28T16:53:14.768Z,2.10
2022-10-28T16:56:19.408Z,1.80
2022-10-28T16:59:23.880Z,2.13
2022-10-28T17:02:32.222Z,2.05
2022-10-28T17:05:37.144Z,2.45
2022-10-28T17:09:01.744Z,2.65
2022-10-28T17:12:06.320Z,2.45
2022-10-28T17:15:11.193Z,1.90
2022-10-28T17:18:15.987Z,2.03
2022-10-28T17:21:20.211Z,2.35
2022-10-28T17:24:25.141Z,3.78
2022-10-28T17:27:29.561Z,5.35
2022-10-28T17:30:34.453Z,5.40
2022-10-28T17:33:39.231Z,6.07
2022-10-28T17:36:43.442Z,5.80
2022-10-28T17:39:47.959Z,5.72
2022-10-28T17:42:53.366Z,4.95
2022-10-28T17:46:07.095Z,4.20
2022-10-28T17:49:11.391Z,3.40
2022-10-28T17:52:15.562Z,2.92
2022-10-28T17:55:20.108Z,3.05
2022-10-28T17:58:24.729Z,2.97
2022-10-28T18:01:34.534Z,2.85
2022-10-28T18:04:39.441Z,2.53
2022-10-28T18:07:43.758Z,2.42
2022-10-28T18:10:54.775Z,1.95
2022-10-28T18:13:59.121Z,2.20
2022-10-28T18:17:04.016Z,2.30
2022-10-28T18:20:09.610Z,1.83
2022-10-28T18:23:13.888Z,1.77
2022-10-28T18:26:18.675Z,2.38
2022-10-28T18:29:23.131Z,4.18
2022-10-28T18:32:27.531Z,7.13
2022-10-28T18:35:34.791Z,7.32
2022-10-28T18:38:39.547Z,7.43
2022-10-28T18:41:44.579Z,6.20
2022-10-28T18:44:49.537Z,4.93
2022-10-28T18:47:54.650Z,3.70
2022-10-28T18:51:06.793Z,3.55
2022-10-28T18:54:11.460Z,4.18
2022-10-28T18:57:16.991Z,3.58
2022-10-28T19:00:22.049Z,3.58
2022-10-28T19:03:26.308Z,2.90
2022-10-28T19:06:33.621Z,2.65
2022-10-28T19:09:38.355Z,3.03
2022-10-28T19:12:45.881Z,2.22
2022-10-28T19:15:52.829Z,2.55
2022-10-28T19:19:03.327Z,2.40
2022-10-28T19:22:11.781Z,3.53
2022-10-28T19:25:16.797Z,3.40
2022-10-28T19:28:21.843Z,3.03
2022-10-28T19:31:27.994Z,2.80
2022-10-28T19:34:32.954Z,2.60
2022-10-28T19:37:37.333Z,2.78
2022-10-28T19:40:41.657Z,4.30
2022-10-28T19:43:47.333Z,5.18
2022-10-28T19:46:51.494Z,5.00
2022-10-28T19:49:55.862Z,4.22
2022-10-28T19:53:00.377Z,3.35
2022-10-28T19:56:05.757Z,3.40
2022-10-28T19:59:10.700Z,3.60
2022-10-28T20:02:15.602Z,2.95
2022-10-28T20:05:20.298Z,3.05
2022-10-28T20:08:24.885Z,2.30
2022-10-28T20:11:35.617Z,2.65
2022-10-28T20:14:40.396Z,3.45
2022-10-28T20:17:44.933Z,6.30
2022-10-28T20:20:49.357Z,9.00
2022-10-28T20:23:56.310Z,10.02
2022-10-28T20:27:01.045Z,11.95
2022-10-28T20:30:06.872Z,12.85
2022-10-28T20:33:11.123Z,11.80
2022-10-28T20:36:37.725Z,9.57
2022-10-28T20:39:41.762Z,9.45
2022-10-28T20:42:46.407Z,9.13
2022-10-28T20:46:02.676Z,8.00
2022-10-28T20:49:08.895Z,6.97
2022-10-28T20:52:16.491Z,9.13
2022-10-28T20:55:21.391Z,10.13
2022-10-28T20:58:30.237Z,16.95
2022-10-28T21:01:40.678Z,21.20
2022-10-28T21:04:45.708Z,18.38
2022-10-28T21:07:50.281Z,16.95
2022-10-28T21:10:54.927Z,16.52
2022-10-28T21:14:01.300Z,13.15
2022-10-28T21:17:05.844Z,12.23
2022-10-28T21:20:10.777Z,10.98
2022-10-28T21:23:15.388Z,10.48
2022-10-28T21:26:20.601Z,8.13
2022-10-28T21:29:25.153Z,7.18
2022-10-28T21:32:29.399Z,5.32
2022-10-28T21:35:33.760Z,4.80
2022-10-28T21:38:38.262Z,4.30
2022-10-28T21:41:42.715Z,3.75
2022-10-28T21:44:47.447Z,3.50
2022-10-28T21:47:55.640Z,3.03
2022-10-28T21:51:03.654Z,2.65
2022-10-28T21:54:08.229Z,2.60
2022-10-28T21:57:13.021Z,2.97
2022-10-28T22:00:17.834Z,2.15
2022-10-28T22:03:22.450Z,2.63
2022-10-28T22:06:26.830Z,2.30
2022-10-28T22:09:34.877Z,2.10
2022-10-28T22:12:41.977Z,2.50
2022-10-28T22:15:55.303Z,2.03
2022-10-28T22:19:02.219Z,1.93
2022-10-28T22:22:06.746Z,1.50
2022-10-28T22:25:11.153Z,1.90
2022-10-28T22:28:15.989Z,1.63
2022-10-28T22:31:27.324Z,1.85
2022-10-28T22:34:31.763Z,1.77
2022-10-28T22:37:36.473Z,1.58
2022-10-28T22:40:40.834Z,1.88
2022-10-28T22:43:57.890Z,1.60
2022-10-28T22:47:03.380Z,1.50
2022-10-28T22:50:08.425Z,1.40
2022-10-28T22:53:12.737Z,1.30
2022-10-28T22:56:23.777Z,1.90
2022-10-28T22:59:28.086Z,1.90
2022-10-28T23:02:32.734Z,1.40
2022-10-28T23:05:37.682Z,1.70
2022-10-28T23:08:44.898Z,2.00
2022-10-28T23:11:49.402Z,1.20
2022-10-28T23:14:54.158Z,1.48
2022-10-28T23:17:58.987Z,1.70
2022-10-28T23:21:13.560Z,1.80
2022-10-28T23:24:17.968Z,1.83
2022-10-28T23:27:22.425Z,1.50
2022-10-28T23:30:27.104Z,1.60
2022-10-28T23:33:33.613Z,1.30
2022-10-28T23:36:38.654Z,1.55
2022-10-28T23:39:43.397Z,2.00
2022-10-28T23:42:47.846Z,1.83
2022-10-28T23:45:52.534Z,1.88
2022-10-28T23:48:57.541Z,2.20
2022-10-28T23:52:02.188Z,1.77
2022-10-28T23:55:07.750Z,1.42
2022-10-28T23:58:13.681Z,1.80
